sensor_id;sensor_type;location;lat;lon;timestamp;noise_LAeq;noise_LA_min;noise_LA_max;noise_LA01;noise_LA95
66888;Laerm;67239;51.680;5.976;2023-05-18T00:02:11;50.51;31.89;73.23;;
66888;Laerm;67239;51.680;5.976;2023-05-18T00:05:00;34.14;31.77;39.62;;
66888;Laerm;67239;51.680;5.976;2023-05-18T00:07:46;34.34;31.84;47.50;;
66888;Laerm;67239;51.680;5.976;2023-05-18T00:10:31;34.43;31.95;41.03;;
66888;Laerm;67239;51.680;5.976;2023-05-18T00:13:17;52.63;32.24;70.50;;
66888;Laerm;67239;51.680;5.976;2023-05-18T00:16:02;43.09;32.29;62.38;;
66888;Laerm;67239;51.680;5.976;2023-05-18T00:18:47;60.45;31.86;78.84;;
66888;Laerm;67239;51.680;5.976;2023-05-18T00:21:32;34.53;31.88;37.33;;
66888;Laerm;67239;51.680;5.976;2023-05-18T00:24:19;34.12;31.79;43.66;;
66888;Laerm;67239;51.680;5.976;2023-05-18T00:27:04;34.90;31.99;41.59;;
66888;Laerm;67239;51.680;5.976;2023-05-18T00:29:50;34.75;31.92;39.06;;
66888;Laerm;67239;51.680;5.976;2023-05-18T00:32:36;34.74;32.07;41.77;;
66888;Laerm;67239;51.680;5.976;2023-05-18T00:35:21;34.95;31.92;40.78;;
66888;Laerm;67239;51.680;5.976;2023-05-18T00:38:07;34.49;31.66;42.12;;
66888;Laerm;67239;51.680;5.976;2023-05-18T00:40:52;35.49;32.34;41.46;;
66888;Laerm;67239;51.680;5.976;2023-05-18T00:43:41;35.74;32.32;48.93;;
66888;Laerm;67239;51.680;5.976;2023-05-18T00:46:27;34.87;31.90;39.71;;
66888;Laerm;67239;51.680;5.976;2023-05-18T00:49:12;34.25;31.78;38.88;;
66888;Laerm;67239;51.680;5.976;2023-05-18T00:51:58;34.30;31.72;40.79;;
66888;Laerm;67239;51.680;5.976;2023-05-18T00:54:43;34.34;31.57;37.71;;
66888;Laerm;67239;51.680;5.976;2023-05-18T00:57:30;53.76;31.92;70.97;;
66888;Laerm;67239;51.680;5.976;2023-05-18T01:00:16;34.25;31.66;48.34;;
66888;Laerm;67239;51.680;5.976;2023-05-18T01:03:03;34.13;31.82;49.85;;
66888;Laerm;67239;51.680;5.976;2023-05-18T01:05:48;34.99;32.25;40.37;;
66888;Laerm;67239;51.680;5.976;2023-05-18T01:08:35;34.42;31.54;37.48;;
66888;Laerm;67239;51.680;5.976;2023-05-18T01:15:08;38.90;32.75;50.44;;
66888;Laerm;67239;51.680;5.976;2023-05-18T01:21:07;35.52;32.53;43.76;;
66888;Laerm;67239;51.680;5.976;2023-05-18T01:24:27;36.72;31.59;45.78;;
66888;Laerm;67239;51.680;5.976;2023-05-18T01:27:16;33.96;30.82;44.45;;
66888;Laerm;67239;51.680;5.976;2023-05-18T01:30:04;36.38;31.38;55.99;;
66888;Laerm;67239;51.680;5.976;2023-05-18T01:32:50;33.91;31.43;42.59;;
66888;Laerm;67239;51.680;5.976;2023-05-18T01:35:36;36.48;31.65;47.29;;
66888;Laerm;67239;51.680;5.976;2023-05-18T01:38:25;36.56;31.95;50.39;;
66888;Laerm;67239;51.680;5.976;2023-05-18T01:44:14;35.21;31.67;42.39;;
66888;Laerm;67239;51.680;5.976;2023-05-18T01:47:10;34.12;31.77;38.41;;
66888;Laerm;67239;51.680;5.976;2023-05-18T01:50:06;34.47;31.55;39.55;;
66888;Laerm;67239;51.680;5.976;2023-05-18T01:53:13;34.34;31.42;46.88;;
66888;Laerm;67239;51.680;5.976;2023-05-18T01:56:07;56.61;31.99;75.98;;
66888;Laerm;67239;51.680;5.976;2023-05-18T01:58:53;35.64;31.38;51.17;;
66888;Laerm;67239;51.680;5.976;2023-05-18T02:01:38;36.76;32.16;47.17;;
66888;Laerm;67239;51.680;5.976;2023-05-18T02:04:24;34.50;31.77;37.71;;
66888;Laerm;67239;51.680;5.976;2023-05-18T02:07:09;35.35;32.06;40.72;;
66888;Laerm;67239;51.680;5.976;2023-05-18T02:09:54;34.67;32.17;40.88;;
66888;Laerm;67239;51.680;5.976;2023-05-18T02:12:40;35.44;32.31;43.87;;
66888;Laerm;67239;51.680;5.976;2023-05-18T02:15:27;34.79;32.08;44.88;;
66888;Laerm;67239;51.680;5.976;2023-05-18T02:18:13;35.64;31.80;46.89;;
66888;Laerm;67239;51.680;5.976;2023-05-18T02:20:59;62.31;32.23;81.38;;
66888;Laerm;67239;51.680;5.976;2023-05-18T02:23:44;34.95;31.58;48.27;;
66888;Laerm;67239;51.680;5.976;2023-05-18T02:26:31;34.81;31.69;43.86;;
66888;Laerm;67239;51.680;5.976;2023-05-18T02:29:16;33.77;31.49;38.83;;
66888;Laerm;67239;51.680;5.976;2023-05-18T02:32:02;55.47;31.95;74.92;;
66888;Laerm;67239;51.680;5.976;2023-05-18T02:34:52;48.23;32.02;66.39;;
66888;Laerm;67239;51.680;5.976;2023-05-18T02:37:37;51.13;32.27;69.67;;
66888;Laerm;67239;51.680;5.976;2023-05-18T02:40:28;52.14;32.55;69.61;;
66888;Laerm;67239;51.680;5.976;2023-05-18T02:43:13;52.07;33.40;68.76;;
66888;Laerm;67239;51.680;5.976;2023-05-18T02:45:59;59.34;33.55;78.93;;
66888;Laerm;67239;51.680;5.976;2023-05-18T02:48:45;58.40;34.74;77.20;;
66888;Laerm;67239;51.680;5.976;2023-05-18T02:51:31;53.44;33.18;69.94;;
66888;Laerm;67239;51.680;5.976;2023-05-18T02:54:17;56.28;33.86;73.88;;
66888;Laerm;67239;51.680;5.976;2023-05-18T02:57:03;60.28;34.57;77.60;;
66888;Laerm;67239;51.680;5.976;2023-05-18T03:00:00;57.01;34.44;74.41;;
66888;Laerm;67239;51.680;5.976;2023-05-18T03:02:45;54.43;34.42;71.37;;
66888;Laerm;67239;51.680;5.976;2023-05-18T03:05:32;53.68;34.76;68.48;;
66888;Laerm;67239;51.680;5.976;2023-05-18T03:08:21;53.55;36.35;70.40;;
66888;Laerm;67239;51.680;5.976;2023-05-18T03:11:11;61.25;37.33;79.90;;
66888;Laerm;67239;51.680;5.976;2023-05-18T03:13:57;51.15;35.95;65.39;;
66888;Laerm;67239;51.680;5.976;2023-05-18T03:16:43;59.72;36.51;75.37;;
66888;Laerm;67239;51.680;5.976;2023-05-18T03:19:32;50.43;34.64;68.54;;
66888;Laerm;67239;51.680;5.976;2023-05-18T03:22:19;57.68;35.20;75.11;;
66888;Laerm;67239;51.680;5.976;2023-05-18T03:25:06;58.22;33.37;76.61;;
66888;Laerm;67239;51.680;5.976;2023-05-18T03:27:52;60.36;33.82;78.78;;
66888;Laerm;67239;51.680;5.976;2023-05-18T03:30:37;57.65;34.29;75.79;;
66888;Laerm;67239;51.680;5.976;2023-05-18T03:33:23;60.77;33.51;79.95;;
66888;Laerm;67239;51.680;5.976;2023-05-18T03:36:09;58.13;35.41;74.24;;
66888;Laerm;67239;51.680;5.976;2023-05-18T03:38:55;58.26;33.76;74.72;;
66888;Laerm;67239;51.680;5.976;2023-05-18T03:41:40;58.12;35.19;74.56;;
66888;Laerm;67239;51.680;5.976;2023-05-18T03:44:26;61.35;35.30;76.87;;
66888;Laerm;67239;51.680;5.976;2023-05-18T03:47:12;61.63;35.81;80.60;;
66888;Laerm;67239;51.680;5.976;2023-05-18T03:49:58;58.10;33.77;75.30;;
66888;Laerm;67239;51.680;5.976;2023-05-18T03:52:44;64.02;33.05;77.90;;
66888;Laerm;67239;51.680;5.976;2023-05-18T03:55:30;61.45;35.07;77.42;;
66888;Laerm;67239;51.680;5.976;2023-05-18T03:58:16;60.52;33.52;77.21;;
66888;Laerm;67239;51.680;5.976;2023-05-18T04:01:04;56.00;32.77;73.81;;
66888;Laerm;67239;51.680;5.976;2023-05-18T04:03:49;67.77;33.94;80.64;;
66888;Laerm;67239;51.680;5.976;2023-05-18T04:06:36;63.22;34.26;81.07;;
66888;Laerm;67239;51.680;5.976;2023-05-18T04:09:21;57.13;34.62;76.46;;
66888;Laerm;67239;51.680;5.976;2023-05-18T04:12:11;63.32;35.20;79.24;;
66888;Laerm;67239;51.680;5.976;2023-05-18T04:14:56;53.47;36.11;70.89;;
66888;Laerm;67239;51.680;5.976;2023-05-18T04:17:43;58.15;35.25;75.14;;
66888;Laerm;67239;51.680;5.976;2023-05-18T04:20:30;55.33;35.37;72.26;;
66888;Laerm;67239;51.680;5.976;2023-05-18T04:23:15;55.26;34.40;72.91;;
66888;Laerm;67239;51.680;5.976;2023-05-18T04:26:01;59.19;34.40;78.19;;
66888;Laerm;67239;51.680;5.976;2023-05-18T04:28:46;60.08;35.23;79.59;;
66888;Laerm;67239;51.680;5.976;2023-05-18T04:31:32;59.85;34.59;78.69;;
66888;Laerm;67239;51.680;5.976;2023-05-18T04:34:18;65.83;35.24;86.37;;
66888;Laerm;67239;51.680;5.976;2023-05-18T04:37:07;59.27;35.73;75.61;;
66888;Laerm;67239;51.680;5.976;2023-05-18T04:39:55;51.75;34.95;67.78;;
66888;Laerm;67239;51.680;5.976;2023-05-18T04:42:40;58.93;35.31;75.53;;
66888;Laerm;67239;51.680;5.976;2023-05-18T04:45:30;59.74;35.55;76.80;;
66888;Laerm;67239;51.680;5.976;2023-05-18T04:48:17;63.34;35.99;81.53;;
66888;Laerm;67239;51.680;5.976;2023-05-18T04:51:04;50.01;36.43;65.12;;
66888;Laerm;67239;51.680;5.976;2023-05-18T04:53:56;55.20;35.32;72.71;;
66888;Laerm;67239;51.680;5.976;2023-05-18T04:56:41;61.20;36.26;80.91;;
66888;Laerm;67239;51.680;5.976;2023-05-18T04:59:33;62.90;37.04;78.80;;
66888;Laerm;67239;51.680;5.976;2023-05-18T05:02:21;57.38;35.41;76.06;;
66888;Laerm;67239;51.680;5.976;2023-05-18T05:05:09;62.03;35.71;81.94;;
66888;Laerm;67239;51.680;5.976;2023-05-18T05:07:54;47.80;34.44;64.24;;
66888;Laerm;67239;51.680;5.976;2023-05-18T05:10:41;49.40;34.44;65.38;;
66888;Laerm;67239;51.680;5.976;2023-05-18T05:13:27;48.78;34.80;66.26;;
66888;Laerm;67239;51.680;5.976;2023-05-18T05:16:12;62.73;34.64;80.01;;
66888;Laerm;67239;51.680;5.976;2023-05-18T05:18:57;60.07;35.76;79.63;;
66888;Laerm;67239;51.680;5.976;2023-05-18T05:21:43;62.08;36.10;76.88;;
66888;Laerm;67239;51.680;5.976;2023-05-18T05:24:29;57.90;35.56;77.59;;
66888;Laerm;67239;51.680;5.976;2023-05-18T05:27:14;60.34;35.80;74.61;;
66888;Laerm;67239;51.680;5.976;2023-05-18T05:30:00;63.20;34.91;78.98;;
66888;Laerm;67239;51.680;5.976;2023-05-18T05:32:45;61.36;34.03;79.23;;
66888;Laerm;67239;51.680;5.976;2023-05-18T05:35:30;61.39;34.56;78.48;;
66888;Laerm;67239;51.680;5.976;2023-05-18T05:38:18;58.67;35.69;76.70;;
66888;Laerm;67239;51.680;5.976;2023-05-18T05:41:04;53.94;34.11;71.80;;
66888;Laerm;67239;51.680;5.976;2023-05-18T05:43:51;51.32;35.15;71.93;;
66888;Laerm;67239;51.680;5.976;2023-05-18T05:46:36;54.25;34.58;71.94;;
66888;Laerm;67239;51.680;5.976;2023-05-18T05:49:22;59.88;37.21;76.14;;
66888;Laerm;67239;51.680;5.976;2023-05-18T05:52:08;51.13;34.64;71.83;;
66888;Laerm;67239;51.680;5.976;2023-05-18T05:54:54;56.66;36.66;75.93;;
66888;Laerm;67239;51.680;5.976;2023-05-18T05:57:39;48.49;35.49;63.77;;
66888;Laerm;67239;51.680;5.976;2023-05-18T06:00:27;60.46;35.87;79.35;;
66888;Laerm;67239;51.680;5.976;2023-05-18T06:03:17;61.13;35.85;79.19;;
66888;Laerm;67239;51.680;5.976;2023-05-18T06:06:04;64.27;35.21;80.47;;
66888;Laerm;67239;51.680;5.976;2023-05-18T06:08:50;62.75;35.57;81.05;;
66888;Laerm;67239;51.680;5.976;2023-05-18T06:11:38;58.32;34.07;73.89;;
66888;Laerm;67239;51.680;5.976;2023-05-18T06:14:26;61.19;34.86;80.40;;
66888;Laerm;67239;51.680;5.976;2023-05-18T06:17:14;59.71;35.60;76.62;;
66888;Laerm;67239;51.680;5.976;2023-05-18T06:20:00;64.51;36.54;81.91;;
66888;Laerm;67239;51.680;5.976;2023-05-18T06:22:46;61.25;35.89;78.19;;
66888;Laerm;67239;51.680;5.976;2023-05-18T06:25:49;56.93;34.58;71.56;;
66888;Laerm;67239;51.680;5.976;2023-05-18T06:28:45;60.58;34.84;75.11;;
66888;Laerm;67239;51.680;5.976;2023-05-18T06:32:00;61.22;35.26;78.87;;
66888;Laerm;67239;51.680;5.976;2023-05-18T06:34:53;63.22;35.53;80.46;;
66888;Laerm;67239;51.680;5.976;2023-05-18T06:37:39;64.84;37.41;84.00;;
66888;Laerm;67239;51.680;5.976;2023-05-18T06:40:24;64.04;35.96;82.93;;
66888;Laerm;67239;51.680;5.976;2023-05-18T06:43:09;61.51;36.99;80.35;;
66888;Laerm;67239;51.680;5.976;2023-05-18T06:46:02;64.59;37.13;79.66;;
66888;Laerm;67239;51.680;5.976;2023-05-18T06:48:57;63.74;37.23;77.25;;
66888;Laerm;67239;51.680;5.976;2023-05-18T06:51:43;66.10;39.64;79.06;;
66888;Laerm;67239;51.680;5.976;2023-05-18T06:54:30;55.37;37.33;73.09;;
66888;Laerm;67239;51.680;5.976;2023-05-18T06:57:17;65.46;38.70;80.15;;
66888;Laerm;67239;51.680;5.976;2023-05-18T07:00:03;66.54;40.28;83.22;;
66888;Laerm;67239;51.680;5.976;2023-05-18T07:02:51;66.78;40.92;77.79;;
66888;Laerm;67239;51.680;5.976;2023-05-18T07:05:36;64.32;36.62;82.12;;
66888;Laerm;67239;51.680;5.976;2023-05-18T07:08:24;67.08;40.12;78.77;;
66888;Laerm;67239;51.680;5.976;2023-05-18T07:11:09;64.43;38.86;81.02;;
66888;Laerm;67239;51.680;5.976;2023-05-18T07:13:55;66.23;37.85;82.01;;
66888;Laerm;67239;51.680;5.976;2023-05-18T07:16:41;63.39;38.01;80.08;;
66888;Laerm;67239;51.680;5.976;2023-05-18T07:19:28;64.81;37.21;79.57;;
66888;Laerm;67239;51.680;5.976;2023-05-18T07:22:13;65.83;37.27;81.40;;
66888;Laerm;67239;51.680;5.976;2023-05-18T07:24:59;62.40;38.33;76.31;;
66888;Laerm;67239;51.680;5.976;2023-05-18T07:27:44;63.38;37.68;78.74;;
66888;Laerm;67239;51.680;5.976;2023-05-18T07:30:30;60.89;35.78;75.96;;
66888;Laerm;67239;51.680;5.976;2023-05-18T07:33:16;66.36;38.69;78.81;;
66888;Laerm;67239;51.680;5.976;2023-05-18T07:36:01;66.68;38.80;81.08;;
66888;Laerm;67239;51.680;5.976;2023-05-18T07:38:46;63.75;38.13;79.19;;
66888;Laerm;67239;51.680;5.976;2023-05-18T07:41:37;65.33;37.78;78.75;;
66888;Laerm;67239;51.680;5.976;2023-05-18T07:44:22;63.90;38.00;78.96;;
66888;Laerm;67239;51.680;5.976;2023-05-18T07:47:08;62.25;39.26;77.47;;
66888;Laerm;67239;51.680;5.976;2023-05-18T07:49:54;64.86;38.79;80.60;;
66888;Laerm;67239;51.680;5.976;2023-05-18T07:52:40;62.04;38.88;76.20;;
66888;Laerm;67239;51.680;5.976;2023-05-18T07:55:25;66.67;39.65;80.24;;
66888;Laerm;67239;51.680;5.976;2023-05-18T07:58:11;65.30;36.94;79.99;;
66888;Laerm;67239;51.680;5.976;2023-05-18T08:00:57;62.41;38.72;78.14;;
66888;Laerm;67239;51.680;5.976;2023-05-18T08:03:42;65.71;36.99;79.03;;
66888;Laerm;67239;51.680;5.976;2023-05-18T08:06:28;65.20;36.20;79.95;;
66888;Laerm;67239;51.680;5.976;2023-05-18T08:09:14;63.93;36.99;79.91;;
66888;Laerm;67239;51.680;5.976;2023-05-18T08:11:59;66.22;37.90;82.11;;
66888;Laerm;67239;51.680;5.976;2023-05-18T08:14:45;63.24;34.36;77.27;;
66888;Laerm;67239;51.680;5.976;2023-05-18T08:17:30;61.16;37.51;76.36;;
66888;Laerm;67239;51.680;5.976;2023-05-18T08:20:15;64.91;35.31;77.30;;
66888;Laerm;67239;51.680;5.976;2023-05-18T08:23:01;62.22;36.03;77.67;;
66888;Laerm;67239;51.680;5.976;2023-05-18T08:25:46;66.74;38.34;80.67;;
66888;Laerm;67239;51.680;5.976;2023-05-18T08:28:31;66.13;40.88;80.97;;
66888;Laerm;67239;51.680;5.976;2023-05-18T08:31:17;66.90;38.94;81.30;;
66888;Laerm;67239;51.680;5.976;2023-05-18T08:34:04;66.20;43.28;79.35;;
66888;Laerm;67239;51.680;5.976;2023-05-18T08:36:50;64.33;38.98;76.56;;
66888;Laerm;67239;51.680;5.976;2023-05-18T08:39:36;64.12;41.21;76.01;;
66888;Laerm;67239;51.680;5.976;2023-05-18T08:42:32;65.22;39.59;84.17;;
66888;Laerm;67239;51.680;5.976;2023-05-18T08:45:47;61.98;37.80;76.90;;
66888;Laerm;67239;51.680;5.976;2023-05-18T08:48:32;65.27;37.38;79.30;;
66888;Laerm;67239;51.680;5.976;2023-05-18T08:51:20;60.29;40.06;74.15;;
66888;Laerm;67239;51.680;5.976;2023-05-18T08:54:07;66.59;37.65;84.98;;
66888;Laerm;67239;51.680;5.976;2023-05-18T08:56:56;65.54;41.38;83.96;;
66888;Laerm;67239;51.680;5.976;2023-05-18T08:59:43;63.32;37.25;76.50;;
66888;Laerm;67239;51.680;5.976;2023-05-18T09:02:32;64.87;40.54;81.26;;
66888;Laerm;67239;51.680;5.976;2023-05-18T09:05:19;64.13;38.49;78.50;;
66888;Laerm;67239;51.680;5.976;2023-05-18T09:08:06;65.65;41.05;78.64;;
66888;Laerm;67239;51.680;5.976;2023-05-18T09:10:56;65.44;40.45;79.10;;
66888;Laerm;67239;51.680;5.976;2023-05-18T09:13:43;66.19;37.23;81.89;;
66888;Laerm;67239;51.680;5.976;2023-05-18T09:16:28;67.90;44.87;81.13;;
66888;Laerm;67239;51.680;5.976;2023-05-18T09:19:14;66.28;41.48;78.75;;
66888;Laerm;67239;51.680;5.976;2023-05-18T09:22:00;64.81;39.14;80.19;;
66888;Laerm;67239;51.680;5.976;2023-05-18T09:24:47;66.40;39.83;78.82;;
66888;Laerm;67239;51.680;5.976;2023-05-18T09:27:33;65.85;39.25;80.12;;
66888;Laerm;67239;51.680;5.976;2023-05-18T09:30:18;65.94;41.51;79.56;;
66888;Laerm;67239;51.680;5.976;2023-05-18T09:33:03;67.89;39.60;83.54;;
66888;Laerm;67239;51.680;5.976;2023-05-18T09:35:50;64.54;42.24;78.71;;
66888;Laerm;67239;51.680;5.976;2023-05-18T09:38:42;59.74;38.49;74.34;;
66888;Laerm;67239;51.680;5.976;2023-05-18T09:41:29;65.84;39.36;79.18;;
66888;Laerm;67239;51.680;5.976;2023-05-18T09:44:15;61.64;39.96;78.03;;
66888;Laerm;67239;51.680;5.976;2023-05-18T09:47:07;66.48;40.26;78.94;;
66888;Laerm;67239;51.680;5.976;2023-05-18T09:49:56;68.66;41.84;81.44;;
66888;Laerm;67239;51.680;5.976;2023-05-18T09:52:43;66.40;42.17;77.76;;
66888;Laerm;67239;51.680;5.976;2023-05-18T09:55:29;66.78;42.90;77.73;;
66888;Laerm;67239;51.680;5.976;2023-05-18T09:58:16;67.29;41.81;80.85;;
66888;Laerm;67239;51.680;5.976;2023-05-18T10:01:02;65.89;39.84;78.89;;
66888;Laerm;67239;51.680;5.976;2023-05-18T10:03:48;61.96;38.54;76.38;;
66888;Laerm;67239;51.680;5.976;2023-05-18T10:06:34;69.05;44.60;81.02;;
66888;Laerm;67239;51.680;5.976;2023-05-18T10:09:20;63.38;42.34;78.33;;
66888;Laerm;67239;51.680;5.976;2023-05-18T10:12:17;66.71;42.22;79.16;;
66888;Laerm;67239;51.680;5.976;2023-05-18T10:15:08;64.89;39.47;77.24;;
66888;Laerm;67239;51.680;5.976;2023-05-18T10:17:56;64.69;39.36;83.66;;
66888;Laerm;67239;51.680;5.976;2023-05-18T10:20:43;62.41;40.62;79.52;;
66888;Laerm;67239;51.680;5.976;2023-05-18T10:23:39;65.88;41.36;78.21;;
66888;Laerm;67239;51.680;5.976;2023-05-18T10:26:27;65.56;41.09;77.88;;
66888;Laerm;67239;51.680;5.976;2023-05-18T10:29:15;63.12;39.02;76.16;;
66888;Laerm;67239;51.680;5.976;2023-05-18T10:32:03;63.73;38.84;80.83;;
66888;Laerm;67239;51.680;5.976;2023-05-18T10:34:52;67.83;41.75;81.66;;
66888;Laerm;67239;51.680;5.976;2023-05-18T10:37:44;68.43;40.25;80.91;;
66888;Laerm;67239;51.680;5.976;2023-05-18T10:40:34;64.08;39.14;78.29;;
66888;Laerm;67239;51.680;5.976;2023-05-18T10:43:23;65.52;39.91;82.89;;
66888;Laerm;67239;51.680;5.976;2023-05-18T10:46:13;65.55;37.61;84.15;;
66888;Laerm;67239;51.680;5.976;2023-05-18T10:49:02;60.12;39.03;75.04;;
66888;Laerm;67239;51.680;5.976;2023-05-18T10:51:52;66.59;38.27;81.95;;
66888;Laerm;67239;51.680;5.976;2023-05-18T10:54:42;65.04;42.05;80.84;;
66888;Laerm;67239;51.680;5.976;2023-05-18T10:57:35;67.63;43.13;79.68;;
66888;Laerm;67239;51.680;5.976;2023-05-18T11:00:22;63.34;38.29;77.36;;
66888;Laerm;67239;51.680;5.976;2023-05-18T11:03:10;66.60;41.54;78.77;;
66888;Laerm;67239;51.680;5.976;2023-05-18T11:06:09;65.94;41.10;78.25;;
66888;Laerm;67239;51.680;5.976;2023-05-18T11:08:57;64.22;44.77;80.09;;
66888;Laerm;67239;51.680;5.976;2023-05-18T11:11:56;67.08;45.62;79.76;;
66888;Laerm;67239;51.680;5.976;2023-05-18T11:14:51;66.50;45.71;79.01;;
66888;Laerm;67239;51.680;5.976;2023-05-18T11:17:37;66.94;48.14;79.52;;
66888;Laerm;67239;51.680;5.976;2023-05-18T11:20:24;64.57;45.67;80.05;;
66888;Laerm;67239;51.680;5.976;2023-05-18T11:23:10;66.43;46.37;79.68;;
66888;Laerm;67239;51.680;5.976;2023-05-18T11:25:59;66.30;50.39;79.08;;
66888;Laerm;67239;51.680;5.976;2023-05-18T11:28:51;66.56;37.93;82.34;;
66888;Laerm;67239;51.680;5.976;2023-05-18T11:31:48;63.35;36.64;76.76;;
66888;Laerm;67239;51.680;5.976;2023-05-18T11:34:45;65.63;44.89;77.68;;
66888;Laerm;67239;51.680;5.976;2023-05-18T11:40:46;65.30;43.42;78.01;;
66888;Laerm;67239;51.680;5.976;2023-05-18T11:43:32;62.86;40.00;74.69;;
66888;Laerm;67239;51.680;5.976;2023-05-18T11:46:20;68.41;47.02;89.28;;
66888;Laerm;67239;51.680;5.976;2023-05-18T11:49:06;65.73;47.46;78.55;;
66888;Laerm;67239;51.680;5.976;2023-05-18T11:54:58;66.74;39.14;79.37;;
66888;Laerm;67239;51.680;5.976;2023-05-18T11:57:49;68.03;45.80;81.42;;
66888;Laerm;67239;51.680;5.976;2023-05-18T12:00:37;67.53;42.33;81.63;;
66888;Laerm;67239;51.680;5.976;2023-05-18T12:03:28;67.03;42.77;81.35;;
66888;Laerm;67239;51.680;5.976;2023-05-18T12:06:15;67.01;43.30;81.60;;
66888;Laerm;67239;51.680;5.976;2023-05-18T12:09:01;69.60;43.13;86.30;;
66888;Laerm;67239;51.680;5.976;2023-05-18T12:11:49;67.34;39.07;79.18;;
66888;Laerm;67239;51.680;5.976;2023-05-18T12:14:42;67.97;46.96;80.79;;
66888;Laerm;67239;51.680;5.976;2023-05-18T12:17:43;65.41;42.08;79.00;;
66888;Laerm;67239;51.680;5.976;2023-05-18T12:20:28;66.24;41.72;79.65;;
66888;Laerm;67239;51.680;5.976;2023-05-18T12:23:15;66.73;45.59;79.45;;
66888;Laerm;67239;51.680;5.976;2023-05-18T12:26:00;66.44;37.26;81.33;;
66888;Laerm;67239;51.680;5.976;2023-05-18T12:28:45;64.73;46.09;77.48;;
66888;Laerm;67239;51.680;5.976;2023-05-18T12:31:31;64.64;38.73;79.78;;
66888;Laerm;67239;51.680;5.976;2023-05-18T12:34:17;65.29;38.03;78.23;;
66888;Laerm;67239;51.680;5.976;2023-05-18T12:37:03;66.63;44.14;81.11;;
66888;Laerm;67239;51.680;5.976;2023-05-18T12:39:52;66.07;42.52;78.72;;
66888;Laerm;67239;51.680;5.976;2023-05-18T12:42:38;61.98;40.64;77.29;;
66888;Laerm;67239;51.680;5.976;2023-05-18T12:45:26;64.04;39.76;76.61;;
66888;Laerm;67239;51.680;5.976;2023-05-18T12:48:13;65.15;40.21;77.99;;
66888;Laerm;67239;51.680;5.976;2023-05-18T12:50:59;67.06;37.34;81.03;;
66888;Laerm;67239;51.680;5.976;2023-05-18T12:53:48;68.60;39.71;86.14;;
66888;Laerm;67239;51.680;5.976;2023-05-18T12:56:54;63.32;36.52;79.76;;
66888;Laerm;67239;51.680;5.976;2023-05-18T12:59:47;65.53;38.26;79.89;;
66888;Laerm;67239;51.680;5.976;2023-05-18T13:02:37;69.08;43.42;83.09;;
66888;Laerm;67239;51.680;5.976;2023-05-18T13:05:23;62.32;38.64;79.34;;
66888;Laerm;67239;51.680;5.976;2023-05-18T13:08:18;61.95;38.71;76.33;;
66888;Laerm;67239;51.680;5.976;2023-05-18T13:11:07;66.56;37.90;81.80;;
66888;Laerm;67239;51.680;5.976;2023-05-18T13:14:08;61.48;37.49;76.04;;
66888;Laerm;67239;51.680;5.976;2023-05-18T13:16:54;64.43;38.83;80.00;;
66888;Laerm;67239;51.680;5.976;2023-05-18T13:19:42;63.22;38.97;78.55;;
66888;Laerm;67239;51.680;5.976;2023-05-18T13:22:27;64.09;36.96;77.67;;
66888;Laerm;67239;51.680;5.976;2023-05-18T13:25:13;67.02;36.36;79.84;;
66888;Laerm;67239;51.680;5.976;2023-05-18T13:27:58;67.41;35.23;81.74;;
66888;Laerm;67239;51.680;5.976;2023-05-18T13:30:45;60.63;38.25;79.02;;
66888;Laerm;67239;51.680;5.976;2023-05-18T13:33:31;65.09;38.31;81.06;;
66888;Laerm;67239;51.680;5.976;2023-05-18T13:36:17;67.59;39.67;78.92;;
66888;Laerm;67239;51.680;5.976;2023-05-18T13:39:03;64.86;39.48;79.90;;
66888;Laerm;67239;51.680;5.976;2023-05-18T13:41:51;63.66;40.60;74.93;;
66888;Laerm;67239;51.680;5.976;2023-05-18T13:44:37;65.02;38.89;80.92;;
66888;Laerm;67239;51.680;5.976;2023-05-18T13:47:22;65.86;38.29;79.34;;
66888;Laerm;67239;51.680;5.976;2023-05-18T13:50:08;64.63;38.00;78.10;;
66888;Laerm;67239;51.680;5.976;2023-05-18T13:52:57;66.50;37.24;79.13;;
66888;Laerm;67239;51.680;5.976;2023-05-18T13:55:43;64.62;39.93;79.86;;
66888;Laerm;67239;51.680;5.976;2023-05-18T13:58:28;66.34;39.96;80.03;;
66888;Laerm;67239;51.680;5.976;2023-05-18T14:01:15;62.78;37.22;78.28;;
66888;Laerm;67239;51.680;5.976;2023-05-18T14:04:04;65.35;36.59;79.84;;
66888;Laerm;67239;51.680;5.976;2023-05-18T14:06:50;63.78;38.62;77.87;;
66888;Laerm;67239;51.680;5.976;2023-05-18T14:09:38;63.42;41.77;79.76;;
66888;Laerm;67239;51.680;5.976;2023-05-18T14:12:23;64.68;38.99;77.55;;
66888;Laerm;67239;51.680;5.976;2023-05-18T14:15:11;62.67;37.18;78.68;;
66888;Laerm;67239;51.680;5.976;2023-05-18T14:17:58;62.71;40.52;76.94;;
66888;Laerm;67239;51.680;5.976;2023-05-18T14:20:43;65.90;37.92;82.53;;
66888;Laerm;67239;51.680;5.976;2023-05-18T14:23:28;62.40;36.27;76.82;;
66888;Laerm;67239;51.680;5.976;2023-05-18T14:26:14;67.29;38.58;85.78;;
66888;Laerm;67239;51.680;5.976;2023-05-18T14:28:59;65.25;40.62;76.76;;
66888;Laerm;67239;51.680;5.976;2023-05-18T14:31:45;63.97;37.26;78.10;;
66888;Laerm;67239;51.680;5.976;2023-05-18T14:34:30;67.44;41.45;81.57;;
66888;Laerm;67239;51.680;5.976;2023-05-18T14:37:17;66.07;39.96;78.31;;
66888;Laerm;67239;51.680;5.976;2023-05-18T14:40:03;69.10;43.77;86.97;;
66888;Laerm;67239;51.680;5.976;2023-05-18T14:42:49;65.91;36.83;83.60;;
66888;Laerm;67239;51.680;5.976;2023-05-18T14:45:38;67.34;36.08;83.93;;
66888;Laerm;67239;51.680;5.976;2023-05-18T14:48:23;67.21;41.94;79.31;;
66888;Laerm;67239;51.680;5.976;2023-05-18T14:51:09;66.86;42.98;80.79;;
66888;Laerm;67239;51.680;5.976;2023-05-18T14:53:55;64.78;39.64;80.93;;
66888;Laerm;67239;51.680;5.976;2023-05-18T14:56:40;67.63;42.00;78.90;;
66888;Laerm;67239;51.680;5.976;2023-05-18T14:59:26;64.65;39.06;77.55;;
66888;Laerm;67239;51.680;5.976;2023-05-18T15:02:17;65.15;39.14;80.47;;
66888;Laerm;67239;51.680;5.976;2023-05-18T15:05:03;64.20;37.63;81.07;;
66888;Laerm;67239;51.680;5.976;2023-05-18T15:08:00;65.40;36.53;84.24;;
66888;Laerm;67239;51.680;5.976;2023-05-18T15:10:46;67.47;37.60;79.15;;
66888;Laerm;67239;51.680;5.976;2023-05-18T15:13:31;64.74;38.17;78.56;;
66888;Laerm;67239;51.680;5.976;2023-05-18T15:16:17;65.95;37.67;80.50;;
66888;Laerm;67239;51.680;5.976;2023-05-18T15:19:03;65.93;37.91;81.22;;
66888;Laerm;67239;51.680;5.976;2023-05-18T15:21:49;66.62;39.13;79.98;;
66888;Laerm;67239;51.680;5.976;2023-05-18T15:24:35;68.40;40.78;85.74;;
66888;Laerm;67239;51.680;5.976;2023-05-18T15:27:20;61.80;36.62;77.45;;
66888;Laerm;67239;51.680;5.976;2023-05-18T15:30:06;64.05;37.75;78.63;;
66888;Laerm;67239;51.680;5.976;2023-05-18T15:32:55;63.86;38.03;78.37;;
66888;Laerm;67239;51.680;5.976;2023-05-18T15:35:42;61.70;37.98;79.34;;
66888;Laerm;67239;51.680;5.976;2023-05-18T15:38:27;66.79;40.23;82.73;;
66888;Laerm;67239;51.680;5.976;2023-05-18T15:41:14;66.33;36.33;82.23;;
66888;Laerm;67239;51.680;5.976;2023-05-18T15:44:00;62.63;38.26;77.44;;
66888;Laerm;67239;51.680;5.976;2023-05-18T15:46:49;64.41;38.93;77.76;;
66888;Laerm;67239;51.680;5.976;2023-05-18T15:49:34;65.99;39.14;78.72;;
66888;Laerm;67239;51.680;5.976;2023-05-18T15:52:20;65.33;36.52;80.06;;
66888;Laerm;67239;51.680;5.976;2023-05-18T15:55:06;67.64;39.56;82.31;;